createdAt,value
2023-10-05T00:02:02.460Z,15.43
2023-10-05T00:04:41.604Z,15.43
2023-10-05T00:07:19.781Z,15.43
2023-10-05T00:09:48.212Z,15.41
2023-10-05T00:12:21.530Z,15.40
2023-10-05T00:15:11.715Z,15.41
2023-10-05T00:17:40.676Z,15.47
2023-10-05T00:20:30.946Z,15.55
2023-10-05T00:23:00.083Z,15.68
2023-10-05T00:25:30.688Z,15.81
2023-10-05T00:28:00.455Z,15.93
2023-10-05T00:30:29.240Z,16.03
2023-10-05T00:33:00.027Z,16.11
2023-10-05T00:35:30.511Z,16.19
2023-10-05T00:38:06.049Z,16.25
2023-10-05T00:40:34.266Z,16.29
2023-10-05T00:43:13.907Z,16.34
2023-10-05T00:45:48.389Z,16.39
2023-10-05T00:48:30.627Z,16.45
2023-10-05T00:51:08.784Z,16.50
2023-10-05T00:53:37.215Z,16.54
2023-10-05T00:56:15.562Z,16.57
2023-10-05T00:58:45.306Z,16.60
2023-10-05T01:01:24.923Z,16.62
2023-10-05T01:04:11.968Z,16.63
2023-10-05T01:06:42.980Z,16.63
2023-10-05T01:09:31.571Z,16.65
2023-10-05T01:12:12.444Z,16.67
2023-10-05T01:14:47.229Z,16.67
2023-10-05T01:17:15.406Z,16.67
2023-10-05T01:19:44.556Z,16.65
2023-10-05T01:22:16.166Z,16.67
2023-10-05T01:24:46.798Z,16.68
2023-10-05T01:27:15.942Z,16.69
2023-10-05T01:29:45.143Z,16.70
2023-10-05T01:32:15.531Z,16.70
2023-10-05T01:34:43.896Z,16.71
2023-10-05T01:37:12.344Z,16.71
2023-10-05T01:39:45.372Z,16.71
2023-10-05T01:42:13.567Z,16.71
2023-10-05T01:44:48.515Z,16.70
2023-10-05T01:47:17.832Z,16.69
2023-10-05T01:49:47.262Z,16.68
2023-10-05T01:52:19.126Z,16.68
2023-10-05T01:54:48.325Z,16.67
2023-10-05T01:57:18.110Z,16.65
2023-10-05T01:59:46.563Z,16.65
2023-10-05T02:02:17.236Z,16.67
2023-10-05T02:04:46.155Z,16.69
2023-10-05T02:07:16.820Z,16.71
2023-10-05T02:09:45.166Z,16.73
2023-10-05T02:12:13.401Z,16.75
2023-10-05T02:14:43.066Z,16.74
2023-10-05T02:17:11.614Z,16.72
2023-10-05T02:19:44.065Z,16.71
2023-10-05T02:22:13.297Z,16.69
2023-10-05T02:24:42.589Z,16.69
2023-10-05T02:27:13.037Z,16.68
2023-10-05T02:29:46.160Z,16.68
2023-10-05T02:32:23.232Z,16.68
2023-10-05T02:35:01.409Z,16.67
2023-10-05T02:37:30.248Z,16.68
2023-10-05T02:39:59.426Z,16.70
2023-10-05T02:42:27.829Z,16.72
2023-10-05T02:44:56.550Z,16.75
2023-10-05T02:47:25.127Z,16.78
2023-10-05T02:49:53.695Z,16.80
2023-10-05T02:52:22.389Z,16.83
2023-10-05T02:54:51.034Z,16.85
2023-10-05T02:57:21.356Z,16.85
2023-10-05T02:59:51.759Z,16.85
2023-10-05T03:02:20.271Z,16.86
2023-10-05T03:04:49.150Z,16.86
2023-10-05T03:07:26.784Z,16.87
2023-10-05T03:10:02.732Z,16.87
2023-10-05T03:12:35.078Z,16.88
2023-10-05T03:15:08.614Z,16.91
2023-10-05T03:17:39.090Z,16.96
2023-10-05T03:20:16.755Z,17.01
2023-10-05T03:22:47.728Z,17.06
2023-10-05T03:25:17.970Z,17.08
2023-10-05T03:27:47.691Z,17.09
2023-10-05T03:30:17.019Z,17.10
2023-10-05T03:32:50.180Z,17.10
2023-10-05T03:35:24.102Z,17.10
2023-10-05T03:37:52.603Z,17.10
2023-10-05T03:40:37.073Z,17.10
2023-10-05T03:43:07.020Z,17.09
2023-10-05T03:45:40.960Z,17.08
2023-10-05T03:48:11.762Z,17.07
2023-10-05T03:50:40.409Z,17.07
2023-10-05T03:53:17.311Z,17.08
2023-10-05T03:55:48.599Z,17.10
2023-10-05T03:58:20.067Z,17.14
2023-10-05T04:00:51.070Z,17.13
2023-10-05T04:03:23.756Z,17.14
2023-10-05T04:05:53.201Z,17.13
2023-10-05T04:08:22.085Z,17.12
2023-10-05T04:10:52.964Z,17.12
2023-10-05T04:13:25.656Z,17.11
2023-10-05T04:15:54.058Z,17.09
2023-10-05T04:18:23.308Z,17.06
2023-10-05T04:20:54.666Z,17.04
2023-10-05T04:23:28.050Z,17.02
2023-10-05T04:25:58.251Z,16.99
2023-10-05T04:28:34.474Z,16.99
2023-10-05T04:31:08.301Z,17.01
2023-10-05T04:33:37.709Z,17.04
2023-10-05T04:36:06.676Z,17.07
2023-10-05T04:38:34.892Z,17.07
2023-10-05T04:41:03.226Z,17.07
2023-10-05T04:43:31.849Z,17.07
2023-10-05T04:46:06.811Z,17.07
2023-10-05T04:48:35.203Z,17.06
2023-10-05T04:51:07.070Z,17.05
2023-10-05T04:53:39.642Z,17.04
2023-10-05T04:56:28.057Z,17.04
2023-10-05T04:59:22.170Z,17.04
2023-10-05T05:01:53.382Z,17.05
2023-10-05T05:04:44.972Z,17.09
2023-10-05T05:07:14.241Z,17.12
2023-10-05T05:09:43.962Z,17.16
2023-10-05T05:12:21.514Z,17.18
2023-10-05T05:14:55.954Z,17.21
2023-10-05T05:17:24.478Z,17.22
2023-10-05T05:19:57.706Z,17.22
2023-10-05T05:22:28.214Z,17.22
2023-10-05T05:24:56.500Z,17.22
2023-10-05T05:27:24.979Z,17.21
2023-10-05T05:29:55.707Z,17.20
2023-10-05T05:32:24.522Z,17.19
2023-10-05T05:34:53.005Z,17.19
2023-10-05T05:37:31.047Z,17.19
2023-10-05T05:40:14.128Z,17.22
2023-10-05T05:42:46.511Z,17.25
2023-10-05T05:45:18.166Z,17.28
2023-10-05T05:47:50.060Z,17.32
2023-10-05T05:50:24.649Z,17.37
2023-10-05T05:52:55.352Z,17.45
2023-10-05T05:55:24.599Z,17.53
2023-10-05T05:57:53.194Z,17.60
2023-10-05T06:00:22.226Z,17.67
2023-10-05T06:02:51.286Z,17.74
2023-10-05T06:05:23.566Z,17.81
2023-10-05T06:07:52.301Z,17.90
2023-10-05T06:10:30.397Z,17.98
2023-10-05T06:13:00.145Z,18.10
2023-10-05T06:15:30.505Z,18.19
2023-10-05T06:18:01.006Z,18.28
2023-10-05T06:20:29.455Z,18.38
2023-10-05T06:22:57.575Z,18.49
2023-10-05T06:25:27.055Z,18.56
2023-10-05T06:27:55.327Z,18.64
2023-10-05T06:30:23.903Z,18.72
2023-10-05T06:32:54.885Z,18.78
2023-10-05T06:35:23.198Z,18.85
2023-10-05T06:37:51.613Z,18.95
2023-10-05T06:40:25.507Z,19.01
2023-10-05T06:42:53.884Z,19.10
2023-10-05T06:45:24.981Z,19.17
2023-10-05T06:47:53.365Z,19.27
2023-10-05T06:50:22.694Z,19.36
2023-10-05T06:52:51.172Z,19.45
2023-10-05T06:55:20.068Z,19.54
2023-10-05T06:57:51.072Z,19.61
2023-10-05T07:00:23.582Z,19.70
2023-10-05T07:02:56.597Z,19.78
2023-10-05T07:05:24.915Z,19.88
2023-10-05T07:07:53.045Z,19.99
2023-10-05T07:10:22.560Z,20.09
2023-10-05T07:12:51.090Z,20.18
2023-10-05T07:15:20.988Z,20.26
2023-10-05T07:17:50.655Z,20.36
2023-10-05T07:20:20.285Z,20.48
2023-10-05T07:22:49.651Z,20.61
2023-10-05T07:25:21.118Z,20.72
2023-10-05T07:27:49.854Z,20.78
2023-10-05T07:30:18.596Z,20.83
2023-10-05T07:32:50.615Z,20.93
2023-10-05T07:35:26.265Z,20.98
2023-10-05T07:37:54.564Z,21.03
2023-10-05T07:40:23.099Z,21.08
2023-10-05T07:42:51.303Z,21.18
2023-10-05T07:45:19.724Z,21.27
2023-10-05T07:47:48.280Z,21.34
2023-10-05T07:50:16.965Z,21.38
2023-10-05T07:52:45.736Z,21.47
2023-10-05T07:55:13.949Z,21.54
2023-10-05T07:57:42.036Z,21.62
2023-10-05T08:00:14.080Z,21.67
2023-10-05T08:02:43.691Z,21.77
2023-10-05T08:05:15.312Z,21.86
2023-10-05T08:07:45.590Z,21.91
2023-10-05T08:10:23.337Z,21.98
2023-10-05T08:12:51.621Z,22.08
2023-10-05T08:15:20.201Z,22.16
2023-10-05T08:17:51.368Z,22.22
2023-10-05T08:20:29.064Z,22.26
2023-10-05T08:22:58.613Z,22.33
2023-10-05T08:25:27.201Z,22.39
2023-10-05T08:27:57.322Z,22.44
2023-10-05T08:30:34.117Z,22.46
2023-10-05T08:33:05.536Z,22.47
2023-10-05T08:35:42.516Z,22.44
2023-10-05T08:38:17.554Z,22.40
2023-10-05T08:40:47.254Z,22.43
2023-10-05T08:43:18.420Z,22.54
2023-10-05T08:45:54.303Z,22.64
2023-10-05T08:48:31.109Z,22.71
2023-10-05T08:51:12.253Z,22.80
2023-10-05T08:53:56.289Z,22.84
2023-10-05T08:56:27.068Z,22.89
2023-10-05T08:58:55.328Z,22.96
2023-10-05T09:01:33.270Z,22.98
2023-10-05T09:04:18.912Z,23.02
2023-10-05T09:06:50.592Z,23.10
2023-10-05T09:09:28.850Z,23.17
2023-10-05T09:11:58.074Z,23.23
2023-10-05T09:14:29.557Z,23.31
2023-10-05T09:17:10.861Z,23.43
2023-10-05T09:19:39.518Z,23.57
2023-10-05T09:22:10.987Z,23.55
2023-10-05T09:24:43.473Z,23.44
2023-10-05T09:27:14.542Z,23.32
2023-10-05T09:29:45.276Z,23.24
2023-10-05T09:32:27.729Z,23.07
2023-10-05T09:34:58.186Z,22.94
2023-10-05T09:37:30.946Z,22.94
2023-10-05T09:40:02.340Z,23.03
2023-10-05T09:42:35.633Z,23.13
2023-10-05T09:45:14.396Z,23.29
2023-10-05T09:47:43.955Z,23.50
2023-10-05T09:50:14.818Z,23.67
2023-10-05T09:52:44.954Z,23.81
2023-10-05T09:55:20.393Z,23.88
2023-10-05T09:57:53.290Z,23.94
2023-10-05T10:00:28.346Z,24.00
2023-10-05T10:03:00.503Z,24.12
2023-10-05T10:05:38.350Z,24.14
2023-10-05T10:08:28.984Z,24.33
2023-10-05T10:11:19.386Z,24.52
2023-10-05T10:14:10.340Z,24.58
2023-10-05T10:16:43.332Z,24.65
2023-10-05T10:19:28.018Z,24.73
2023-10-05T10:22:13.244Z,24.71
2023-10-05T10:24:41.691Z,24.90
2023-10-05T10:27:14.032Z,24.93
2023-10-05T10:29:47.124Z,24.85
2023-10-05T10:32:32.471Z,24.98
2023-10-05T10:35:11.459Z,25.05
2023-10-05T10:37:45.999Z,25.09
2023-10-05T10:40:22.147Z,25.17
2023-10-05T10:43:05.093Z,25.26
2023-10-05T10:45:45.496Z,25.36
2023-10-05T10:48:21.610Z,25.53
2023-10-05T10:50:54.408Z,25.57
2023-10-05T10:53:27.325Z,25.48
2023-10-05T10:56:05.475Z,25.52
2023-10-05T10:58:35.827Z,25.52
2023-10-05T11:01:05.828Z,25.59
2023-10-05T11:03:37.610Z,25.62
2023-10-05T11:06:06.986Z,25.77
2023-10-05T11:08:42.364Z,25.88
2023-10-05T11:11:20.015Z,25.87
2023-10-05T11:13:58.331Z,25.84
2023-10-05T11:16:47.260Z,25.91
2023-10-05T11:19:32.460Z,26.06
2023-10-05T11:22:12.847Z,26.09
2023-10-05T11:25:18.508Z,26.14
2023-10-05T11:27:57.928Z,26.06
2023-10-05T11:31:02.334Z,26.15
2023-10-05T11:34:24.519Z,26.29
2023-10-05T11:36:35.663Z,26.32
2023-10-05T11:39:05.094Z,26.29
2023-10-05T11:41:34.893Z,26.38
2023-10-05T11:44:03.308Z,26.38
2023-10-05T11:46:47.917Z,26.34
2023-10-05T11:49:16.525Z,26.46
2023-10-05T11:52:01.001Z,26.62
2023-10-05T11:54:32.648Z,26.62
2023-10-05T11:57:03.151Z,26.60
2023-10-05T11:59:32.827Z,26.63
2023-10-05T12:02:01.170Z,26.74
2023-10-05T12:04:29.856Z,26.76
2023-10-05T12:07:01.202Z,26.73
2023-10-05T12:09:33.687Z,26.84
2023-10-05T12:12:04.326Z,27.09
2023-10-05T12:14:33.930Z,27.44
2023-10-05T12:17:02.383Z,27.74
2023-10-05T12:19:30.996Z,27.67
2023-10-05T12:22:01.313Z,27.88
2023-10-05T12:24:32.014Z,27.87
2023-10-05T12:27:01.790Z,27.88
2023-10-05T12:29:31.376Z,27.90
2023-10-05T12:32:10.185Z,27.88
2023-10-05T12:34:39.794Z,27.77
2023-10-05T12:37:10.085Z,27.64
2023-10-05T12:39:38.618Z,27.65
2023-10-05T12:42:09.149Z,27.59
2023-10-05T12:44:37.966Z,27.52
2023-10-05T12:47:09.625Z,27.48
2023-10-05T12:49:39.067Z,27.51
2023-10-05T12:52:07.258Z,27.30
2023-10-05T12:54:36.104Z,27.24
2023-10-05T12:59:43.651Z,27.20
2023-10-05T13:02:17.109Z,27.14
2023-10-05T13:04:46.481Z,27.11
2023-10-05T13:07:21.251Z,27.05
2023-10-05T13:10:00.988Z,26.91
2023-10-05T13:12:32.366Z,26.79
2023-10-05T13:15:05.450Z,26.66
2023-10-05T13:17:39.584Z,26.69
2023-10-05T13:20:16.472Z,26.39
2023-10-05T13:22:46.060Z,26.25
2023-10-05T13:25:15.424Z,26.22
2023-10-05T13:27:43.844Z,26.27
2023-10-05T13:30:23.791Z,26.21
2023-10-05T13:32:59.520Z,26.20
2023-10-05T13:35:31.352Z,26.11
2023-10-05T13:37:59.810Z,26.03
2023-10-05T13:40:36.088Z,26.00
2023-10-05T13:43:05.556Z,25.95
2023-10-05T13:45:34.939Z,25.92
2023-10-05T13:48:04.171Z,25.86
2023-10-05T13:50:32.654Z,25.89
2023-10-05T13:53:02.464Z,25.85
2023-10-05T13:55:31.233Z,25.84
2023-10-05T13:57:59.417Z,25.88
2023-10-05T14:00:31.309Z,25.86
2023-10-05T14:03:04.226Z,25.84
2023-10-05T14:05:32.816Z,25.72
2023-10-05T14:08:00.928Z,25.59
2023-10-05T14:10:29.079Z,25.49
2023-10-05T14:12:57.272Z,25.44
2023-10-05T14:15:25.496Z,25.39
2023-10-05T14:17:58.066Z,25.36
2023-10-05T14:20:26.545Z,25.31
2023-10-05T14:22:54.702Z,25.21
2023-10-05T14:25:24.808Z,25.14
2023-10-05T14:27:53.783Z,25.04
2023-10-05T14:30:23.550Z,24.97
2023-10-05T14:32:52.131Z,24.85
2023-10-05T14:35:21.097Z,24.76
2023-10-05T14:37:53.804Z,24.59
2023-10-05T14:40:27.946Z,24.51
2023-10-05T14:42:57.388Z,24.46
2023-10-05T14:45:28.525Z,24.37
2023-10-05T14:47:59.698Z,24.23
2023-10-05T14:50:28.083Z,24.12
2023-10-05T14:52:57.070Z,23.99
2023-10-05T14:55:27.057Z,23.88
2023-10-05T14:57:56.649Z,23.74
2023-10-05T15:00:24.784Z,23.58
2023-10-05T15:02:54.484Z,23.43
2023-10-05T15:05:23.613Z,23.29
2023-10-05T15:07:54.343Z,23.15
2023-10-05T15:10:22.890Z,23.02
2023-10-05T15:12:51.195Z,22.87
2023-10-05T15:15:20.581Z,22.73
2023-10-05T15:17:53.182Z,22.59
2023-10-05T15:20:24.277Z,22.47
2023-10-05T15:22:56.425Z,22.32
2023-10-05T15:25:25.198Z,22.23
2023-10-05T15:27:54.883Z,22.13
2023-10-05T15:30:25.145Z,22.05
2023-10-05T15:32:53.520Z,21.97
2023-10-05T15:35:22.391Z,21.87
2023-10-05T15:37:54.413Z,21.80
2023-10-05T15:40:22.929Z,21.71
2023-10-05T15:42:53.220Z,21.61
2023-10-05T15:45:24.646Z,21.56
2023-10-05T15:47:55.328Z,21.49
2023-10-05T15:50:28.467Z,21.42
2023-10-05T15:53:00.983Z,21.34
2023-10-05T15:55:32.747Z,21.28
2023-10-05T15:58:08.124Z,21.23
2023-10-05T16:00:37.554Z,21.17
2023-10-05T16:03:11.492Z,21.10
2023-10-05T16:05:42.650Z,21.05
2023-10-05T16:08:11.501Z,20.99
2023-10-05T16:10:40.718Z,20.94
2023-10-05T16:13:09.674Z,20.88
2023-10-05T16:15:40.605Z,20.83
2023-10-05T16:18:11.763Z,20.79
2023-10-05T16:20:42.999Z,20.75
2023-10-05T16:23:13.146Z,20.69
2023-10-05T16:25:42.055Z,20.65
2023-10-05T16:28:10.427Z,20.63
2023-10-05T16:30:38.810Z,20.58
2023-10-05T16:33:09.104Z,20.52
2023-10-05T16:35:41.919Z,20.46
2023-10-05T16:38:10.457Z,20.42
2023-10-05T16:40:39.591Z,20.38
2023-10-05T16:43:08.013Z,20.34
2023-10-05T16:45:38.973Z,20.31
2023-10-05T16:48:07.496Z,20.27
2023-10-05T16:50:35.675Z,20.23
2023-10-05T16:53:03.897Z,20.17
2023-10-05T16:55:32.342Z,20.16
2023-10-05T16:58:00.634Z,20.16
2023-10-05T17:00:30.945Z,20.18
2023-10-05T17:03:00.125Z,20.17
2023-10-05T17:05:29.534Z,20.15
2023-10-05T17:08:02.053Z,20.14
2023-10-05T17:10:31.882Z,20.14
2023-10-05T17:13:00.907Z,20.12
2023-10-05T17:15:29.333Z,20.09
2023-10-05T17:17:57.858Z,20.06
2023-10-05T17:20:26.266Z,20.02
2023-10-05T17:22:54.869Z,19.96
2023-10-05T17:25:23.442Z,19.88
2023-10-05T17:27:52.705Z,19.78
2023-10-05T17:30:22.259Z,19.69
2023-10-05T17:32:51.207Z,19.64
2023-10-05T17:35:25.178Z,19.59
2023-10-05T17:37:54.065Z,19.53
2023-10-05T17:40:22.952Z,19.49
2023-10-05T17:42:51.786Z,19.47
2023-10-05T17:45:20.321Z,19.41
2023-10-05T17:47:50.750Z,19.31
2023-10-05T17:50:19.169Z,19.20
2023-10-05T17:52:47.436Z,19.14
2023-10-05T17:55:15.942Z,19.08
2023-10-05T17:57:44.526Z,18.97
2023-10-05T18:00:17.432Z,18.86
2023-10-05T18:02:46.519Z,18.76
2023-10-05T18:05:17.329Z,18.69
2023-10-05T18:07:45.989Z,18.61
2023-10-05T18:10:14.352Z,18.55
2023-10-05T18:12:42.575Z,18.45
2023-10-05T18:15:11.395Z,18.39
2023-10-05T18:17:39.733Z,18.32
2023-10-05T18:20:08.735Z,18.27
2023-10-05T18:22:37.127Z,18.23
2023-10-05T18:25:05.778Z,18.18
2023-10-05T18:27:35.836Z,18.14
2023-10-05T18:30:07.349Z,18.08
2023-10-05T18:32:36.416Z,18.04
2023-10-05T18:35:05.186Z,18.02
2023-10-05T18:37:34.012Z,18.01
2023-10-05T18:40:02.334Z,18.02
2023-10-05T18:42:30.550Z,18.01
2023-10-05T18:44:58.970Z,17.98
2023-10-05T18:47:28.194Z,17.94
2023-10-05T18:49:56.342Z,17.88
2023-10-05T18:52:24.582Z,17.83
2023-10-05T18:54:52.762Z,17.79
2023-10-05T18:57:20.875Z,17.76
2023-10-05T18:59:49.106Z,17.75
2023-10-05T19:02:17.413Z,17.73
2023-10-05T19:04:45.671Z,17.71
2023-10-05T19:07:14.055Z,17.68
2023-10-05T19:09:42.285Z,17.62
2023-10-05T19:12:11.441Z,17.59
2023-10-05T19:14:39.923Z,17.55
2023-10-05T19:17:08.072Z,17.50
2023-10-05T19:19:36.298Z,17.43
2023-10-05T19:22:05.185Z,17.38
2023-10-05T19:24:33.429Z,17.34
2023-10-05T19:27:01.925Z,17.33
2023-10-05T19:29:31.048Z,17.34
2023-10-05T19:31:59.230Z,17.34
2023-10-05T19:34:27.623Z,17.35
2023-10-05T19:36:55.932Z,17.37
2023-10-05T19:39:24.336Z,17.37
2023-10-05T19:41:55.568Z,17.37
2023-10-05T19:44:26.917Z,17.33
2023-10-05T19:46:55.173Z,17.27
2023-10-05T19:49:26.797Z,17.23
2023-10-05T19:51:56.086Z,17.19
2023-10-05T19:54:24.525Z,17.12
2023-10-05T19:56:52.921Z,17.05
2023-10-05T19:59:21.452Z,17.00
2023-10-05T20:01:50.877Z,16.98
2023-10-05T20:04:19.312Z,16.99
2023-10-05T20:06:47.502Z,17.03
2023-10-05T20:09:16.428Z,17.04
2023-10-05T20:11:46.654Z,17.04
2023-10-05T20:14:14.890Z,17.01
2023-10-05T20:16:43.688Z,16.99
2023-10-05T20:19:12.131Z,16.98
2023-10-05T20:21:41.443Z,16.99
2023-10-05T20:24:10.581Z,16.99
2023-10-05T20:26:38.787Z,17.00
2023-10-05T20:29:07.012Z,17.05
2023-10-05T20:31:35.057Z,17.09
2023-10-05T20:34:03.362Z,17.12
2023-10-05T20:36:31.465Z,17.12
2023-10-05T20:38:59.689Z,17.09
2023-10-05T20:41:27.909Z,17.06
2023-10-05T20:43:56.070Z,17.05
2023-10-05T20:46:24.335Z,17.04
2023-10-05T20:48:52.672Z,17.02
2023-10-05T20:51:20.792Z,17.07
2023-10-05T20:53:49.119Z,17.14
2023-10-05T20:56:18.047Z,17.18
2023-10-05T20:58:46.275Z,17.24
2023-10-05T21:01:14.595Z,17.32
2023-10-05T21:03:43.106Z,17.40
2023-10-05T21:06:11.679Z,17.49
2023-10-05T21:08:41.846Z,17.55
2023-10-05T21:11:10.073Z,17.58
2023-10-05T21:13:38.308Z,17.62
2023-10-05T21:16:07.003Z,17.64
2023-10-05T21:32:51.766Z,17.63
2023-10-05T21:35:20.261Z,17.65
2023-10-05T21:37:48.693Z,17.67
2023-10-05T21:40:17.494Z,17.67
2023-10-05T21:42:45.720Z,17.66
2023-10-05T21:45:16.072Z,17.65
2023-10-05T21:47:48.593Z,17.63
2023-10-05T21:50:17.105Z,17.64
2023-10-05T21:52:45.261Z,17.66
2023-10-05T21:55:13.697Z,17.68
2023-10-05T21:57:41.965Z,17.72
2023-10-05T22:00:11.320Z,17.74
2023-10-05T22:02:39.859Z,17.78
2023-10-05T22:05:08.533Z,17.83
2023-10-05T22:07:40.503Z,17.87
2023-10-05T22:10:13.169Z,17.89
2023-10-05T22:12:41.432Z,17.90
2023-10-05T22:15:11.666Z,17.89
2023-10-05T22:17:39.935Z,17.86
2023-10-05T22:20:14.184Z,17.83
2023-10-05T22:22:42.919Z,17.81
2023-10-05T22:25:11.683Z,17.81
2023-10-05T22:27:39.975Z,17.82
2023-10-05T22:30:09.790Z,17.83
2023-10-05T22:32:38.141Z,17.83
2023-10-05T22:35:06.947Z,17.83
2023-10-05T22:37:35.605Z,17.82
2023-10-05T22:40:04.766Z,17.82
2023-10-05T22:42:35.711Z,17.84
2023-10-05T22:45:04.477Z,17.86
2023-10-05T22:47:33.899Z,17.88
2023-10-05T22:50:02.522Z,17.90
2023-10-05T22:52:32.277Z,17.91
2023-10-05T22:55:00.942Z,17.90
2023-10-05T22:57:29.272Z,17.89
2023-10-05T22:59:57.492Z,17.87
2023-10-05T23:02:26.091Z,17.86
2023-10-05T23:04:54.547Z,17.85
2023-10-05T23:07:22.643Z,17.83
2023-10-05T23:09:53.809Z,17.80
2023-10-05T23:12:22.097Z,17.79
2023-10-05T23:14:51.426Z,17.80
2023-10-05T23:19:52.801Z,17.83
2023-10-05T23:22:21.494Z,17.84
2023-10-05T23:24:57.271Z,17.88
2023-10-05T23:27:25.473Z,17.92
2023-10-05T23:29:53.685Z,17.94
2023-10-05T23:32:22.130Z,17.98
2023-10-05T23:34:50.455Z,18.01
2023-10-05T23:37:22.364Z,18.07
2023-10-05T23:39:50.582Z,18.10
2023-10-05T23:42:19.000Z,18.12
2023-10-05T23:44:50.538Z,18.13
2023-10-05T23:47:24.598Z,18.06
2023-10-05T23:49:54.906Z,17.99
2023-10-05T23:52:23.831Z,17.93
2023-10-05T23:54:52.145Z,17.91
2023-10-05T23:57:22.418Z,17.89
2023-10-05T23:59:50.900Z,17.85
